createdAt,value
2023-01-29T00:01:54.079Z,37.65
2023-01-29T00:04:59.084Z,36.55
2023-01-29T00:08:01.943Z,34.67
2023-01-29T00:11:06.326Z,36.80
2023-01-29T00:14:08.691Z,34.42
2023-01-29T00:17:11.260Z,34.25
2023-01-29T00:20:13.915Z,35.03
2023-01-29T00:23:17.708Z,35.72
2023-01-29T00:26:19.877Z,34.70
2023-01-29T00:29:25.293Z,36.88
2023-01-29T00:32:27.505Z,39.20
2023-01-29T00:35:30.781Z,35.38
2023-01-29T00:38:35.379Z,36.92
2023-01-29T00:41:59.775Z,33.88
2023-01-29T00:45:04.195Z,36.58
2023-01-29T00:48:06.988Z,36.30
2023-01-29T00:51:09.395Z,33.20
2023-01-29T00:54:12.213Z,41.10
2023-01-29T00:57:15.030Z,39.05
2023-01-29T01:00:19.308Z,36.20
2023-01-29T01:03:21.719Z,40.95
2023-01-29T01:06:24.203Z,38.13
2023-01-29T01:09:45.106Z,33.78
2023-01-29T01:12:51.738Z,35.03
2023-01-29T01:15:56.088Z,37.95
2023-01-29T01:18:58.599Z,38.55
2023-01-29T01:22:01.239Z,39.47
2023-01-29T01:25:04.025Z,33.80
2023-01-29T01:28:06.379Z,32.83
2023-01-29T01:31:10.841Z,32.83
2023-01-29T01:34:13.104Z,38.97
2023-01-29T01:37:15.614Z,34.38
2023-01-29T01:40:22.738Z,33.53
2023-01-29T01:43:25.953Z,35.55
2023-01-29T01:46:36.838Z,36.55
2023-01-29T01:49:40.372Z,32.85
2023-01-29T01:52:52.049Z,36.50
2023-01-29T01:56:00.585Z,37.53
2023-01-29T01:59:02.982Z,31.25
2023-01-29T02:02:27.588Z,34.55
2023-01-29T02:05:55.072Z,36.90
2023-01-29T02:09:24.145Z,40.12
2023-01-29T02:12:31.102Z,33.45
2023-01-29T02:15:34.249Z,39.28
2023-01-29T02:18:39.461Z,38.72
2023-01-29T02:21:56.746Z,32.92
2023-01-29T02:25:28.387Z,31.48
2023-01-29T02:28:58.213Z,34.83
2023-01-29T02:32:03.906Z,34.17
2023-01-29T02:35:28.886Z,39.83
2023-01-29T02:38:49.311Z,38.85
2023-01-29T02:42:03.141Z,32.05
2023-01-29T02:45:15.385Z,35.10
2023-01-29T02:48:20.878Z,40.10
2023-01-29T02:51:35.181Z,41.95
2023-01-29T02:54:53.448Z,37.55
2023-01-29T02:58:03.843Z,30.75
2023-01-29T03:01:17.670Z,34.35
2023-01-29T03:04:31.311Z,31.98
2023-01-29T03:07:42.465Z,32.60
2023-01-29T03:10:57.612Z,34.33
2023-01-29T03:14:08.663Z,38.47
2023-01-29T03:17:11.705Z,33.05
2023-01-29T03:20:19.082Z,39.55
2023-01-29T03:23:27.251Z,32.90
2023-01-29T03:26:48.450Z,30.50
2023-01-29T03:30:14.314Z,41.90
2023-01-29T03:33:20.589Z,36.60
2023-01-29T03:36:37.982Z,29.10
2023-01-29T03:39:40.521Z,32.08
2023-01-29T03:43:19.485Z,31.00
2023-01-29T03:46:38.264Z,26.08
2023-01-29T03:49:49.234Z,34.90
2023-01-29T03:53:10.515Z,38.40
2023-01-29T03:56:28.999Z,31.77
2023-01-29T04:00:01.917Z,32.90
2023-01-29T04:03:35.137Z,28.45
2023-01-29T04:06:43.619Z,31.42
2023-01-29T04:09:50.498Z,31.87
2023-01-29T04:13:06.471Z,34.65
2023-01-29T04:16:15.456Z,27.50
2023-01-29T04:19:21.115Z,37.90
2023-01-29T04:22:36.253Z,33.45
2023-01-29T04:25:48.994Z,27.92
2023-01-29T04:29:17.098Z,32.65
2023-01-29T04:32:48.074Z,30.73
2023-01-29T04:36:00.108Z,31.12
2023-01-29T04:39:49.070Z,34.03
2023-01-29T04:43:07.343Z,27.98
2023-01-29T04:46:15.864Z,27.25
2023-01-29T04:49:27.528Z,31.57
2023-01-29T04:52:53.071Z,34.28
2023-01-29T04:56:12.439Z,25.67
2023-01-29T04:59:21.917Z,30.92
2023-01-29T05:02:28.991Z,24.80
2023-01-29T05:05:31.925Z,36.70
2023-01-29T05:08:37.319Z,26.30
2023-01-29T05:11:41.793Z,28.40
2023-01-29T05:14:47.794Z,26.42
2023-01-29T05:17:50.563Z,30.52
2023-01-29T05:20:56.395Z,27.75
2023-01-29T05:24:11.448Z,27.83
2023-01-29T05:27:39.455Z,24.12
2023-01-29T05:30:44.521Z,26.42
2023-01-29T05:33:46.752Z,24.60
2023-01-29T05:36:49.781Z,23.25
2023-01-29T05:39:54.239Z,21.98
2023-01-29T05:42:58.791Z,22.40
2023-01-29T05:46:03.733Z,26.70
2023-01-29T05:49:06.432Z,22.08
2023-01-29T05:52:10.445Z,24.55
2023-01-29T05:55:14.361Z,23.62
2023-01-29T05:58:16.556Z,21.50
2023-01-29T06:01:22.294Z,22.65
2023-01-29T06:04:24.734Z,23.92
2023-01-29T06:07:27.003Z,21.27
2023-01-29T06:10:29.681Z,26.95
2023-01-29T06:13:31.847Z,20.88
2023-01-29T06:16:34.440Z,25.10
2023-01-29T06:19:36.808Z,19.35
2023-01-29T06:22:39.352Z,21.87
2023-01-29T06:25:41.555Z,22.62
2023-01-29T06:28:48.153Z,19.20
2023-01-29T06:31:50.737Z,25.45
2023-01-29T06:34:55.533Z,21.27
2023-01-29T06:37:57.730Z,23.02
2023-01-29T06:41:09.366Z,22.85
2023-01-29T06:44:11.583Z,19.87
2023-01-29T06:47:14.071Z,23.10
2023-01-29T06:50:17.941Z,20.45
2023-01-29T06:53:21.860Z,22.45
2023-01-29T06:56:24.460Z,20.33
2023-01-29T06:59:27.068Z,18.77
2023-01-29T07:02:30.181Z,20.75
2023-01-29T07:05:34.257Z,16.50
2023-01-29T07:08:40.175Z,19.55
2023-01-29T07:11:42.862Z,18.02
2023-01-29T07:14:45.314Z,16.83
2023-01-29T07:18:07.640Z,20.90
2023-01-29T07:21:09.840Z,18.62
2023-01-29T07:24:12.643Z,19.42
2023-01-29T07:27:14.842Z,18.58
2023-01-29T07:30:18.216Z,16.50
2023-01-29T07:33:20.610Z,17.70
2023-01-29T07:36:24.156Z,14.50
2023-01-29T07:39:26.380Z,19.48
2023-01-29T07:42:29.434Z,22.05
2023-01-29T07:45:33.863Z,17.92
2023-01-29T07:48:36.591Z,19.25
2023-01-29T07:51:38.741Z,18.70
2023-01-29T07:54:41.389Z,16.25
2023-01-29T07:57:44.478Z,17.42
2023-01-29T08:00:46.984Z,18.73
2023-01-29T08:03:51.241Z,14.80
2023-01-29T08:06:53.709Z,19.95
2023-01-29T08:09:58.219Z,15.98
2023-01-29T08:13:03.020Z,14.57
2023-01-29T08:16:07.344Z,18.08
2023-01-29T08:19:09.511Z,16.08
2023-01-29T08:22:12.037Z,15.38
2023-01-29T08:25:15.198Z,17.02
2023-01-29T08:28:18.109Z,17.48
2023-01-29T08:31:23.512Z,17.15
2023-01-29T08:34:29.356Z,15.48
2023-01-29T08:37:31.546Z,13.82
2023-01-29T08:40:35.335Z,13.40
2023-01-29T08:43:38.863Z,15.20
2023-01-29T08:46:41.528Z,18.50
2023-01-29T08:49:45.846Z,14.40
2023-01-29T08:52:49.891Z,15.30
2023-01-29T08:55:52.830Z,14.82
2023-01-29T08:58:55.273Z,13.65
2023-01-29T09:02:00.297Z,12.13
2023-01-29T09:05:02.725Z,13.10
2023-01-29T09:08:06.372Z,14.15
2023-01-29T09:11:09.258Z,12.68
2023-01-29T09:14:24.789Z,15.32
2023-01-29T09:17:27.279Z,12.52
2023-01-29T09:20:29.475Z,12.35
2023-01-29T09:23:32.299Z,15.23
2023-01-29T09:26:34.540Z,14.87
2023-01-29T09:29:37.455Z,12.77
2023-01-29T09:32:55.288Z,15.02
2023-01-29T09:35:57.970Z,17.23
2023-01-29T09:39:00.365Z,15.38
2023-01-29T09:42:23.196Z,14.50
2023-01-29T09:45:28.265Z,13.55
2023-01-29T09:48:34.812Z,13.57
2023-01-29T09:52:10.523Z,11.52
2023-01-29T09:55:24.938Z,12.73
2023-01-29T09:58:39.041Z,10.70
2023-01-29T10:01:54.756Z,13.02
2023-01-29T10:05:28.491Z,14.87
2023-01-29T10:08:33.717Z,12.57
2023-01-29T10:11:57.775Z,11.95
2023-01-29T10:15:19.629Z,9.88
2023-01-29T10:18:57.727Z,16.40
2023-01-29T10:22:25.353Z,14.60
2023-01-29T10:25:28.913Z,11.35
2023-01-29T10:28:51.581Z,9.32
2023-01-29T10:32:07.284Z,9.30
2023-01-29T10:35:30.808Z,9.02
2023-01-29T10:38:47.732Z,11.57
2023-01-29T10:42:29.045Z,9.30
2023-01-29T10:46:06.451Z,9.05
2023-01-29T10:49:14.429Z,6.20
2023-01-29T10:52:41.266Z,10.57
2023-01-29T10:55:51.194Z,14.07
2023-01-29T10:59:01.627Z,12.07
2023-01-29T11:02:16.493Z,15.27
2023-01-29T11:05:28.246Z,12.70
2023-01-29T11:08:54.740Z,12.10
2023-01-29T11:12:10.089Z,10.35
2023-01-29T11:15:18.725Z,10.75
2023-01-29T11:18:21.200Z,15.23
2023-01-29T11:21:25.339Z,9.30
2023-01-29T11:24:28.776Z,9.10
2023-01-29T11:27:37.895Z,7.55
2023-01-29T11:30:41.842Z,9.70
2023-01-29T11:33:45.918Z,12.40
2023-01-29T11:37:01.403Z,12.57
2023-01-29T11:40:19.143Z,8.70
2023-01-29T11:43:34.290Z,13.57
2023-01-29T11:46:39.843Z,9.98
2023-01-29T11:49:51.346Z,11.15
2023-01-29T11:52:54.519Z,12.48
2023-01-29T11:55:57.225Z,11.88
2023-01-29T11:59:04.391Z,10.80
2023-01-29T12:02:28.038Z,10.60
2023-01-29T12:05:30.715Z,7.93
2023-01-29T12:08:39.937Z,7.65
2023-01-29T12:11:42.440Z,9.93
2023-01-29T12:14:45.885Z,8.75
2023-01-29T12:18:23.763Z,11.30
2023-01-29T12:21:46.575Z,9.73
2023-01-29T12:24:54.763Z,9.50
2023-01-29T12:28:20.572Z,12.25
2023-01-29T12:31:39.156Z,11.30
2023-01-29T12:34:55.360Z,11.93
2023-01-29T12:38:16.325Z,11.50
2023-01-29T12:41:30.877Z,9.70
2023-01-29T12:44:42.389Z,10.32
2023-01-29T12:47:49.277Z,9.05
2023-01-29T12:50:53.893Z,10.77
2023-01-29T12:54:21.618Z,7.78
2023-01-29T12:57:49.844Z,10.38
2023-01-29T13:00:55.301Z,7.62
2023-01-29T13:04:14.862Z,7.15
2023-01-29T13:07:31.281Z,6.40
2023-01-29T13:10:41.212Z,11.00
2023-01-29T13:13:54.631Z,10.80
2023-01-29T13:17:20.177Z,7.62
2023-01-29T13:20:30.567Z,7.37
2023-01-29T13:23:47.238Z,7.22
2023-01-29T13:26:49.953Z,6.62
2023-01-29T13:29:54.534Z,6.72
2023-01-29T13:33:09.141Z,8.80
2023-01-29T13:36:21.987Z,7.05
2023-01-29T13:39:39.629Z,9.98
2023-01-29T13:42:49.939Z,9.00
2023-01-29T13:45:54.684Z,6.95
2023-01-29T13:49:00.840Z,10.15
2023-01-29T13:52:31.835Z,6.30
2023-01-29T13:55:40.320Z,9.75
2023-01-29T13:59:05.235Z,8.20
2023-01-29T14:02:24.551Z,7.90
2023-01-29T14:05:32.486Z,7.65
2023-01-29T14:08:34.805Z,6.22
2023-01-29T14:11:37.462Z,7.95
2023-01-29T14:14:48.416Z,6.15
2023-01-29T14:18:02.853Z,7.30
2023-01-29T14:21:19.238Z,11.90
2023-01-29T14:24:29.202Z,11.73
2023-01-29T14:27:32.431Z,8.95
2023-01-29T14:30:36.604Z,7.18
2023-01-29T14:33:42.363Z,7.47
2023-01-29T14:36:47.488Z,8.73
2023-01-29T14:39:51.964Z,8.57
2023-01-29T14:43:00.461Z,12.63
2023-01-29T14:46:36.216Z,7.12
2023-01-29T14:50:00.697Z,11.70
2023-01-29T14:53:30.980Z,12.65
2023-01-29T14:56:42.947Z,8.77
2023-01-29T15:00:17.358Z,11.57
2023-01-29T15:03:29.468Z,10.38
2023-01-29T15:06:53.013Z,9.48
2023-01-29T15:10:21.959Z,10.18
2023-01-29T15:13:35.892Z,9.40
2023-01-29T15:17:06.697Z,11.63
2023-01-29T15:20:33.608Z,8.63
2023-01-29T15:23:36.348Z,13.13
2023-01-29T15:26:38.783Z,11.95
2023-01-29T15:29:43.315Z,13.80
2023-01-29T15:32:47.937Z,14.02
2023-01-29T15:36:07.331Z,17.35
2023-01-29T15:39:13.330Z,15.85
2023-01-29T15:42:21.733Z,12.63
2023-01-29T15:45:29.281Z,13.95
2023-01-29T15:48:36.495Z,16.52
2023-01-29T15:51:39.131Z,10.40
2023-01-29T15:54:41.758Z,12.82
2023-01-29T15:57:45.360Z,12.95
2023-01-29T16:00:56.788Z,11.80
2023-01-29T16:04:06.540Z,16.80
2023-01-29T16:07:08.723Z,10.65
2023-01-29T16:10:20.831Z,10.93
2023-01-29T16:13:26.256Z,14.05
2023-01-29T16:16:29.092Z,13.70
2023-01-29T16:19:31.362Z,17.10
2023-01-29T16:22:37.058Z,14.40
2023-01-29T16:25:39.525Z,15.60
2023-01-29T16:28:43.751Z,16.10
2023-01-29T16:31:48.435Z,12.88
2023-01-29T16:34:58.100Z,11.70
2023-01-29T16:41:20.937Z,12.10
2023-01-29T16:44:37.252Z,11.70
2023-01-29T16:47:43.610Z,16.45
2023-01-29T16:50:54.696Z,14.85
2023-01-29T16:54:02.126Z,12.80
2023-01-29T16:57:06.716Z,13.32
2023-01-29T17:00:21.853Z,9.82
2023-01-29T17:03:27.215Z,14.32
2023-01-29T17:06:32.400Z,14.15
2023-01-29T17:09:37.679Z,12.10
2023-01-29T17:12:40.163Z,13.40
2023-01-29T17:15:43.066Z,22.98
2023-01-29T17:18:45.562Z,12.55
2023-01-29T17:21:47.824Z,18.92
2023-01-29T17:24:51.560Z,11.70
2023-01-29T17:27:55.155Z,11.43
2023-01-29T17:31:06.762Z,15.23
2023-01-29T17:34:14.335Z,14.30
2023-01-29T17:37:17.248Z,13.23
2023-01-29T17:40:55.446Z,13.00
2023-01-29T17:43:58.324Z,15.93
2023-01-29T17:47:00.854Z,12.63
2023-01-29T17:50:06.925Z,24.48
2023-01-29T17:53:09.651Z,16.00
2023-01-29T17:56:21.376Z,13.10
2023-01-29T17:59:27.621Z,18.08
2023-01-29T18:02:30.242Z,18.40
2023-01-29T18:05:34.927Z,13.98
2023-01-29T18:08:38.686Z,15.82
2023-01-29T18:11:42.886Z,16.98
2023-01-29T18:14:45.081Z,13.48
2023-01-29T18:17:48.440Z,15.90
2023-01-29T18:20:51.181Z,16.52
2023-01-29T18:23:53.676Z,18.35
2023-01-29T18:26:55.953Z,16.60
2023-01-29T18:29:58.378Z,16.23
2023-01-29T18:33:00.629Z,15.90
2023-01-29T18:36:05.154Z,17.95
2023-01-29T18:39:07.490Z,21.35
2023-01-29T18:42:10.183Z,20.80
2023-01-29T18:45:13.244Z,19.35
2023-01-29T18:48:15.767Z,19.60
2023-01-29T18:51:17.999Z,16.27
2023-01-29T18:54:21.445Z,25.10
2023-01-29T18:58:27.755Z,17.45
2023-01-29T19:00:46.076Z,22.10
2023-01-29T19:03:48.388Z,13.82
2023-01-29T19:06:51.157Z,17.10
2023-01-29T19:09:53.798Z,19.02
2023-01-29T19:12:58.741Z,17.92
2023-01-29T19:16:01.344Z,20.17
2023-01-29T19:19:03.936Z,22.55
2023-01-29T19:22:06.130Z,17.65
2023-01-29T19:25:09.294Z,19.35
2023-01-29T19:28:11.742Z,15.93
2023-01-29T19:31:14.383Z,15.38
2023-01-29T19:34:20.132Z,24.87
2023-01-29T19:37:22.706Z,17.30
2023-01-29T19:40:26.477Z,20.55
2023-01-29T19:43:34.668Z,22.95
2023-01-29T19:46:37.134Z,21.83
2023-01-29T19:49:40.889Z,18.48
2023-01-29T19:52:51.662Z,16.92
2023-01-29T19:56:07.872Z,16.85
2023-01-29T19:59:11.396Z,16.48
2023-01-29T20:02:14.324Z,26.92
2023-01-29T20:05:18.418Z,16.92
2023-01-29T20:08:23.510Z,14.60
2023-01-29T20:11:26.061Z,18.90
2023-01-29T20:14:28.560Z,15.15
2023-01-29T20:17:33.403Z,16.10
2023-01-29T20:20:39.441Z,16.37
2023-01-29T20:23:43.755Z,16.45
2023-01-29T20:26:47.313Z,16.92
2023-01-29T20:29:52.485Z,15.68
2023-01-29T20:32:54.722Z,15.80
2023-01-29T20:35:59.350Z,18.12
2023-01-29T20:39:01.862Z,22.75
2023-01-29T20:42:04.414Z,12.95
2023-01-29T20:45:06.965Z,19.12
2023-01-29T20:48:09.449Z,14.10
2023-01-29T20:51:17.021Z,18.40
2023-01-29T20:54:19.841Z,18.65
2023-01-29T20:57:24.353Z,14.63
2023-01-29T21:00:27.954Z,14.93
2023-01-29T21:03:30.184Z,15.05
2023-01-29T21:06:32.977Z,9.57
2023-01-29T21:09:35.368Z,14.38
2023-01-29T21:12:37.907Z,13.07
2023-01-29T21:15:43.782Z,11.88
2023-01-29T21:18:47.380Z,14.05
2023-01-29T21:21:49.518Z,12.23
2023-01-29T21:24:51.960Z,16.85
2023-01-29T21:27:54.140Z,16.80
2023-01-29T21:31:11.267Z,24.12
2023-01-29T21:34:14.411Z,14.68
2023-01-29T21:37:16.915Z,20.12
2023-01-29T21:40:22.632Z,18.52
2023-01-29T21:43:27.140Z,20.55
2023-01-29T21:46:30.311Z,24.30
2023-01-29T21:49:32.773Z,18.55
2023-01-29T21:52:34.895Z,16.55
2023-01-29T21:55:38.623Z,21.70
2023-01-29T21:58:41.215Z,16.45
2023-01-29T22:01:43.763Z,15.60
2023-01-29T22:04:46.277Z,17.60
2023-01-29T22:07:49.674Z,15.95
2023-01-29T22:10:52.413Z,17.42
2023-01-29T22:13:54.947Z,15.73
2023-01-29T22:16:59.564Z,16.10
2023-01-29T22:20:01.999Z,20.75
2023-01-29T22:23:04.795Z,16.92
2023-01-29T22:26:09.881Z,20.75
2023-01-29T22:29:13.536Z,20.02
2023-01-29T22:32:16.430Z,18.02
2023-01-29T22:35:20.466Z,20.00
2023-01-29T22:38:23.857Z,19.10
2023-01-29T22:41:26.369Z,17.45
2023-01-29T22:44:28.775Z,18.70
2023-01-29T22:47:32.832Z,18.23
2023-01-29T22:50:34.982Z,18.37
2023-01-29T22:53:51.740Z,20.15
2023-01-29T22:56:53.839Z,16.55
2023-01-29T22:59:58.787Z,19.25
2023-01-29T23:03:03.479Z,24.10
2023-01-29T23:06:08.070Z,18.25
2023-01-29T23:09:10.246Z,18.60
2023-01-29T23:12:14.931Z,19.35
2023-01-29T23:15:17.104Z,20.33
2023-01-29T23:18:19.938Z,18.15
2023-01-29T23:21:24.875Z,19.15
2023-01-29T23:24:27.373Z,19.75
2023-01-29T23:27:29.690Z,13.43
2023-01-29T23:30:34.303Z,22.83
2023-01-29T23:33:37.059Z,19.52
2023-01-29T23:36:39.632Z,19.98
2023-01-29T23:39:41.967Z,22.35
2023-01-29T23:42:44.540Z,20.58
2023-01-29T23:45:46.725Z,19.48
2023-01-29T23:48:49.287Z,20.37
2023-01-29T23:51:55.319Z,21.90
2023-01-29T23:54:57.778Z,18.62
2023-01-29T23:57:59.995Z,17.77
